createdAt,value
2023-05-05T00:01:15.411Z,5.03
2023-05-05T00:03:43.808Z,4.32
2023-05-05T00:06:12.190Z,4.90
2023-05-05T00:08:40.322Z,4.20
2023-05-05T00:11:08.614Z,4.07
2023-05-05T00:13:41.489Z,4.65
2023-05-05T00:16:10.229Z,4.03
2023-05-05T00:18:40.882Z,5.03
2023-05-05T00:21:09.266Z,4.20
2023-05-05T00:23:38.495Z,4.53
2023-05-05T00:26:07.860Z,4.22
2023-05-05T00:28:35.913Z,4.45
2023-05-05T00:31:05.657Z,5.00
2023-05-05T00:33:33.880Z,4.38
2023-05-05T00:36:06.935Z,4.18
2023-05-05T00:38:35.183Z,4.28
2023-05-05T00:41:03.244Z,4.47
2023-05-05T00:43:32.532Z,5.70
2023-05-05T00:46:03.777Z,4.60
2023-05-05T00:48:33.623Z,4.10
2023-05-05T00:51:01.927Z,4.18
2023-05-05T00:53:31.471Z,4.47
2023-05-05T00:55:59.690Z,4.63
2023-05-05T00:58:28.038Z,4.97
2023-05-05T01:00:57.935Z,4.57
2023-05-05T01:03:26.909Z,5.30
2023-05-05T01:06:01.971Z,4.13
2023-05-05T01:08:38.996Z,4.57
2023-05-05T01:11:14.196Z,4.90
2023-05-05T01:13:51.207Z,3.85
2023-05-05T01:16:27.629Z,3.55
2023-05-05T01:19:03.047Z,4.75
2023-05-05T01:21:37.860Z,4.78
2023-05-05T01:24:15.051Z,4.38
2023-05-05T01:27:01.217Z,4.80
2023-05-05T01:29:39.773Z,4.57
2023-05-05T01:32:12.043Z,4.55
2023-05-05T01:37:15.916Z,4.57
2023-05-05T01:39:44.954Z,4.40
2023-05-05T01:42:15.064Z,4.18
2023-05-05T01:44:44.726Z,4.57
2023-05-05T01:47:17.148Z,4.40
2023-05-05T01:52:16.757Z,4.38
2023-05-05T01:54:45.395Z,4.22
2023-05-05T01:57:15.337Z,4.20
2023-05-05T01:59:45.058Z,5.13
2023-05-05T02:02:15.589Z,4.07
2023-05-05T02:04:47.612Z,4.32
2023-05-05T02:07:17.362Z,3.83
2023-05-05T02:09:46.385Z,4.57
2023-05-05T02:12:14.768Z,4.10
2023-05-05T02:14:44.588Z,4.22
2023-05-05T02:17:14.650Z,3.72
2023-05-05T02:19:45.019Z,4.65
2023-05-05T02:22:15.470Z,4.28
2023-05-05T02:24:43.779Z,4.13
2023-05-05T02:27:13.039Z,4.50
2023-05-05T02:29:47.031Z,4.45
2023-05-05T02:32:21.438Z,4.20
2023-05-05T02:34:50.826Z,3.88
2023-05-05T02:37:21.372Z,3.63
2023-05-05T02:39:59.077Z,4.67
2023-05-05T02:42:29.914Z,3.95
2023-05-05T02:45:01.674Z,4.03
2023-05-05T02:47:38.135Z,4.57
2023-05-05T02:50:08.285Z,4.88
2023-05-05T02:52:40.069Z,4.63
2023-05-05T02:55:09.151Z,5.28
2023-05-05T02:57:39.754Z,4.60
2023-05-05T03:00:13.740Z,4.95
2023-05-05T03:02:46.086Z,4.88
2023-05-05T03:07:56.268Z,4.22
2023-05-05T03:10:30.540Z,3.92
2023-05-05T03:13:00.507Z,4.40
2023-05-05T03:15:36.122Z,4.72
2023-05-05T03:18:08.427Z,5.28
2023-05-05T03:20:37.429Z,4.82
2023-05-05T03:23:07.204Z,4.53
2023-05-05T03:25:45.947Z,4.78
2023-05-05T03:28:15.708Z,4.38
2023-05-05T03:30:45.155Z,4.63
2023-05-05T03:33:14.963Z,4.45
2023-05-05T03:35:43.687Z,4.85
2023-05-05T03:38:12.157Z,4.55
2023-05-05T03:40:44.306Z,4.38
2023-05-05T03:43:13.785Z,5.65
2023-05-05T03:45:42.294Z,5.03
2023-05-05T03:48:10.443Z,5.57
2023-05-05T03:50:42.490Z,4.28
2023-05-05T03:53:12.306Z,4.05
2023-05-05T03:55:40.567Z,5.15
2023-05-05T03:58:09.800Z,5.03
2023-05-05T04:00:38.555Z,4.93
2023-05-05T04:03:06.655Z,5.05
2023-05-05T04:05:34.945Z,5.15
2023-05-05T04:08:04.945Z,5.47
2023-05-05T04:10:34.213Z,6.07
2023-05-05T04:13:02.287Z,5.38
2023-05-05T04:15:30.942Z,5.70
2023-05-05T04:17:59.101Z,5.57
2023-05-05T04:20:27.338Z,5.40
2023-05-05T04:22:55.541Z,5.63
2023-05-05T04:25:24.986Z,4.57
2023-05-05T04:27:53.098Z,4.30
2023-05-05T04:30:22.340Z,5.05
2023-05-05T04:32:51.625Z,4.95
2023-05-05T04:35:20.119Z,5.30
2023-05-05T04:37:48.880Z,4.70
2023-05-05T04:40:17.208Z,5.05
2023-05-05T04:42:46.842Z,5.10
2023-05-05T04:45:15.597Z,4.50
2023-05-05T04:47:44.177Z,4.43
2023-05-05T04:50:12.346Z,5.15
2023-05-05T04:52:41.132Z,5.15
2023-05-05T04:55:12.220Z,4.75
2023-05-05T04:57:43.959Z,4.57
2023-05-05T05:00:16.163Z,4.90
2023-05-05T05:02:44.671Z,5.30
2023-05-05T05:05:14.581Z,5.38
2023-05-05T05:07:43.092Z,5.93
2023-05-05T05:10:16.394Z,5.38
2023-05-05T05:12:45.041Z,4.75
2023-05-05T05:15:15.446Z,4.55
2023-05-05T05:17:43.639Z,5.25
2023-05-05T05:20:14.991Z,5.43
2023-05-05T05:22:45.254Z,5.47
2023-05-05T05:25:13.310Z,4.93
2023-05-05T05:27:41.972Z,5.00
2023-05-05T05:30:10.804Z,5.70
2023-05-05T05:32:40.877Z,5.25
2023-05-05T05:35:09.443Z,5.43
2023-05-05T05:37:37.751Z,5.15
2023-05-05T05:40:09.114Z,5.57
2023-05-05T05:42:38.130Z,5.80
2023-05-05T05:45:07.905Z,5.53
2023-05-05T05:47:39.057Z,5.43
2023-05-05T05:50:10.184Z,5.13
2023-05-05T05:52:38.628Z,5.50
2023-05-05T05:55:11.392Z,4.85
2023-05-05T05:57:39.955Z,5.40
2023-05-05T06:00:09.943Z,6.18
2023-05-05T06:02:38.502Z,5.80
2023-05-05T06:05:10.514Z,5.63
2023-05-05T06:07:38.619Z,5.25
2023-05-05T06:10:22.709Z,5.63
2023-05-05T06:12:56.227Z,6.13
2023-05-05T06:15:25.544Z,5.80
2023-05-05T06:17:53.972Z,6.45
2023-05-05T06:20:24.116Z,5.50
2023-05-05T06:22:52.132Z,6.25
2023-05-05T06:25:20.162Z,5.97
2023-05-05T06:27:48.288Z,5.88
2023-05-05T06:30:16.725Z,6.25
2023-05-05T06:32:44.828Z,6.25
2023-05-05T06:35:13.227Z,6.63
2023-05-05T06:37:42.596Z,6.20
2023-05-05T06:40:11.598Z,6.47
2023-05-05T06:42:39.625Z,6.10
2023-05-05T06:45:10.951Z,5.47
2023-05-05T06:47:39.081Z,6.07
2023-05-05T06:50:09.517Z,5.50
2023-05-05T06:52:39.611Z,5.68
2023-05-05T06:55:10.551Z,5.07
2023-05-05T06:57:38.473Z,5.88
2023-05-05T07:00:09.911Z,5.97
2023-05-05T07:02:38.758Z,5.40
2023-05-05T07:05:07.855Z,6.57
2023-05-05T07:07:37.129Z,5.95
2023-05-05T07:10:06.282Z,5.88
2023-05-05T07:12:35.826Z,6.25
2023-05-05T07:15:15.489Z,4.95
2023-05-05T07:17:52.036Z,6.10
2023-05-05T07:20:20.196Z,6.07
2023-05-05T07:22:48.232Z,5.30
2023-05-05T07:25:16.308Z,5.70
2023-05-05T07:27:45.764Z,6.13
2023-05-05T07:30:18.072Z,5.55
2023-05-05T07:32:47.334Z,5.90
2023-05-05T07:35:15.361Z,5.28
2023-05-05T07:37:43.497Z,6.32
2023-05-05T07:40:13.537Z,6.43
2023-05-05T07:42:41.657Z,5.03
2023-05-05T07:45:12.046Z,5.35
2023-05-05T07:47:40.559Z,5.18
2023-05-05T07:50:12.291Z,5.88
2023-05-05T07:55:12.109Z,5.90
2023-05-05T07:57:40.245Z,5.25
2023-05-05T08:00:09.961Z,5.53
2023-05-05T08:02:40.009Z,5.78
2023-05-05T08:05:09.681Z,5.43
2023-05-05T08:07:41.536Z,4.70
2023-05-05T08:10:11.676Z,5.80
2023-05-05T08:12:42.224Z,4.97
2023-05-05T08:15:11.553Z,4.88
2023-05-05T08:17:48.751Z,5.18
2023-05-05T08:20:18.526Z,5.78
2023-05-05T08:22:47.520Z,4.90
2023-05-05T08:25:18.213Z,5.22
2023-05-05T08:27:46.908Z,4.35
2023-05-05T08:30:17.219Z,4.85
2023-05-05T08:32:45.363Z,4.47
2023-05-05T08:35:17.367Z,5.03
2023-05-05T08:37:46.165Z,5.43
2023-05-05T08:40:15.471Z,4.40
2023-05-05T08:42:45.521Z,4.00
2023-05-05T08:45:13.911Z,5.05
2023-05-05T08:47:43.738Z,4.45
2023-05-05T08:50:13.996Z,4.97
2023-05-05T08:52:46.864Z,4.75
2023-05-05T08:55:21.612Z,5.22
2023-05-05T08:57:52.769Z,5.22
2023-05-05T09:00:21.404Z,4.47
2023-05-05T09:02:51.540Z,5.28
2023-05-05T09:05:21.642Z,4.60
2023-05-05T09:07:51.106Z,6.07
2023-05-05T09:10:20.992Z,5.03
2023-05-05T09:12:53.591Z,4.22
2023-05-05T09:15:23.142Z,5.07
2023-05-05T09:17:51.726Z,4.95
2023-05-05T09:20:25.114Z,5.68
2023-05-05T09:22:55.677Z,4.88
2023-05-05T09:25:24.457Z,4.40
2023-05-05T09:27:52.449Z,4.40
2023-05-05T09:30:26.014Z,4.53
2023-05-05T09:32:55.476Z,5.40
2023-05-05T09:35:25.775Z,5.53
2023-05-05T09:37:54.231Z,4.55
2023-05-05T09:40:22.736Z,4.93
2023-05-05T09:43:04.511Z,5.45
2023-05-05T09:45:33.297Z,4.25
2023-05-05T09:48:01.638Z,4.68
2023-05-05T09:50:32.710Z,4.25
2023-05-05T09:53:04.268Z,4.50
2023-05-05T09:55:32.451Z,5.15
2023-05-05T09:58:18.435Z,4.75
2023-05-05T10:00:47.507Z,4.43
2023-05-05T10:03:16.136Z,4.65
2023-05-05T10:05:50.540Z,4.93
2023-05-05T10:08:20.435Z,5.03
2023-05-05T10:10:53.080Z,4.43
2023-05-05T10:13:22.365Z,4.30
2023-05-05T10:15:52.071Z,3.50
2023-05-05T10:18:22.829Z,4.32
2023-05-05T10:20:58.342Z,4.03
2023-05-05T10:23:31.220Z,4.88
2023-05-05T10:26:04.381Z,4.38
2023-05-05T10:31:20.055Z,5.05
2023-05-05T10:33:55.357Z,4.55
2023-05-05T10:36:26.844Z,4.87
2023-05-05T10:39:10.614Z,4.05
2023-05-05T10:41:39.460Z,4.80
2023-05-05T10:44:10.830Z,4.50
2023-05-05T10:46:40.669Z,3.93
2023-05-05T10:49:18.765Z,4.90
2023-05-05T10:51:58.491Z,4.43
2023-05-05T10:54:32.299Z,4.72
2023-05-05T10:57:02.871Z,4.30
2023-05-05T10:59:42.865Z,4.28
2023-05-05T11:02:24.179Z,4.38
2023-05-05T11:05:11.215Z,3.92
2023-05-05T11:07:41.866Z,3.88
2023-05-05T11:10:14.492Z,4.95
2023-05-05T11:13:21.449Z,4.18
2023-05-05T11:15:51.321Z,3.92
2023-05-05T11:18:39.568Z,3.90
2023-05-05T11:21:18.848Z,3.42
2023-05-05T11:23:51.312Z,3.55
2023-05-05T11:26:40.374Z,3.88
2023-05-05T11:29:09.723Z,4.03
2023-05-05T11:31:37.941Z,3.53
2023-05-05T11:34:27.052Z,3.72
2023-05-05T11:36:59.310Z,3.47
2023-05-05T11:42:23.771Z,3.70
2023-05-05T11:44:55.594Z,3.70
2023-05-05T11:47:32.147Z,4.03
2023-05-05T11:50:21.510Z,3.78
2023-05-05T11:52:49.614Z,4.38
2023-05-05T11:55:23.285Z,3.50
2023-05-05T11:57:56.162Z,3.97
2023-05-05T12:00:34.807Z,4.20
2023-05-05T12:03:03.230Z,3.85
2023-05-05T12:05:31.396Z,3.20
2023-05-05T12:07:59.991Z,3.85
2023-05-05T12:10:29.360Z,3.38
2023-05-05T12:12:58.407Z,3.58
2023-05-05T12:15:31.874Z,3.40
2023-05-05T12:18:05.552Z,3.67
2023-05-05T12:20:37.587Z,3.55
2023-05-05T12:23:06.482Z,3.75
2023-05-05T12:25:37.041Z,3.13
2023-05-05T12:28:07.337Z,3.08
2023-05-05T12:30:38.063Z,3.78
2023-05-05T12:33:09.633Z,3.30
2023-05-05T12:35:38.832Z,3.55
2023-05-05T12:38:07.221Z,3.72
2023-05-05T12:40:49.651Z,3.45
2023-05-05T12:46:11.158Z,3.92
2023-05-05T12:48:45.615Z,3.73
2023-05-05T12:51:20.587Z,3.17
2023-05-05T12:53:50.897Z,3.70
2023-05-05T12:56:32.946Z,3.47
2023-05-05T12:59:01.540Z,3.75
2023-05-05T13:01:31.212Z,3.45
2023-05-05T13:04:20.252Z,3.38
2023-05-05T13:06:52.070Z,3.33
2023-05-05T13:09:25.261Z,3.28
2023-05-05T13:14:23.054Z,3.35
2023-05-05T13:16:51.568Z,3.28
2023-05-05T13:19:22.781Z,3.90
2023-05-05T13:21:51.892Z,3.28
2023-05-05T13:24:28.738Z,3.40
2023-05-05T13:27:04.008Z,2.85
2023-05-05T13:29:32.971Z,3.33
2023-05-05T13:32:02.118Z,3.58
2023-05-05T13:34:31.900Z,3.17
2023-05-05T13:37:01.504Z,3.63
2023-05-05T13:39:30.727Z,3.08
2023-05-05T13:41:58.825Z,3.13
2023-05-05T13:44:29.651Z,2.92
2023-05-05T13:46:59.021Z,3.50
2023-05-05T13:49:27.346Z,2.63
2023-05-05T13:51:56.978Z,3.10
2023-05-05T13:54:25.901Z,3.53
2023-05-05T13:56:54.006Z,3.25
2023-05-05T13:59:27.649Z,3.20
2023-05-05T14:01:56.418Z,3.63
2023-05-05T14:04:25.232Z,3.40
2023-05-05T14:06:59.854Z,2.90
2023-05-05T14:09:29.355Z,2.80
2023-05-05T14:11:59.030Z,3.38
2023-05-05T14:14:28.829Z,2.40
2023-05-05T14:17:00.306Z,3.33
2023-05-05T14:19:28.873Z,2.95
2023-05-05T14:21:57.518Z,3.10
2023-05-05T14:24:26.102Z,2.47
2023-05-05T14:26:56.247Z,2.80
2023-05-05T14:29:24.404Z,2.25
2023-05-05T14:31:54.369Z,3.42
2023-05-05T14:34:23.763Z,3.10
2023-05-05T14:36:53.587Z,2.63
2023-05-05T14:39:23.399Z,2.95
2023-05-05T14:41:52.144Z,2.50
2023-05-05T14:44:22.339Z,2.95
2023-05-05T14:46:51.266Z,3.35
2023-05-05T14:49:20.004Z,2.53
2023-05-05T14:51:51.252Z,2.53
2023-05-05T14:54:27.797Z,3.63
2023-05-05T14:56:56.750Z,3.13
2023-05-05T14:59:27.898Z,2.80
2023-05-05T15:01:56.790Z,2.83
2023-05-05T15:04:27.572Z,3.08
2023-05-05T15:06:56.677Z,2.75
2023-05-05T15:09:25.240Z,3.22
2023-05-05T15:11:57.231Z,2.40
2023-05-05T15:14:27.116Z,3.15
2023-05-05T15:16:56.460Z,3.60
2023-05-05T15:19:26.434Z,2.63
2023-05-05T15:21:58.153Z,3.22
2023-05-05T15:24:27.265Z,3.05
2023-05-05T15:26:55.848Z,2.55
2023-05-05T15:29:27.199Z,2.97
2023-05-05T15:31:55.921Z,2.50
2023-05-05T15:34:25.486Z,3.40
2023-05-05T15:36:54.624Z,3.00
2023-05-05T15:39:22.943Z,3.20
2023-05-05T15:41:52.352Z,3.25
2023-05-05T15:44:21.384Z,3.28
2023-05-05T15:46:51.266Z,3.22
2023-05-05T15:49:19.490Z,3.03
2023-05-05T15:51:48.883Z,2.90
2023-05-05T15:54:16.894Z,3.33
2023-05-05T15:56:45.109Z,3.33
2023-05-05T15:59:13.670Z,3.45
2023-05-05T16:01:43.014Z,3.20
2023-05-05T16:04:12.986Z,3.30
2023-05-05T16:06:41.502Z,3.08
2023-05-05T16:09:09.686Z,3.10
2023-05-05T16:11:38.572Z,2.97
2023-05-05T16:14:06.911Z,3.08
2023-05-05T16:16:35.112Z,2.72
2023-05-05T16:19:03.714Z,3.40
2023-05-05T16:21:33.739Z,3.47
2023-05-05T16:24:01.831Z,3.03
2023-05-05T16:26:29.999Z,3.10
2023-05-05T16:28:58.020Z,2.83
2023-05-05T16:31:26.240Z,3.47
2023-05-05T16:33:54.500Z,3.00
2023-05-05T16:36:22.894Z,2.97
2023-05-05T16:38:53.076Z,3.58
2023-05-05T16:41:22.421Z,3.00
2023-05-05T16:43:50.682Z,2.80
2023-05-05T16:46:19.094Z,3.15
2023-05-05T16:48:47.403Z,3.30
2023-05-05T16:51:15.477Z,3.03
2023-05-05T16:53:44.082Z,3.03
2023-05-05T16:56:13.812Z,3.80
2023-05-05T16:58:42.025Z,2.83
2023-05-05T17:01:10.076Z,3.50
2023-05-05T17:03:38.298Z,4.20
2023-05-05T17:06:07.543Z,3.15
2023-05-05T17:08:35.519Z,3.78
2023-05-05T17:11:03.966Z,2.90
2023-05-05T17:13:33.244Z,3.45
2023-05-05T17:16:04.697Z,3.28
2023-05-05T17:18:33.006Z,3.80
2023-05-05T17:21:01.796Z,3.88
2023-05-05T17:23:30.124Z,3.03
2023-05-05T17:26:00.124Z,3.03
2023-05-05T17:28:28.235Z,3.88
2023-05-05T17:30:59.980Z,2.85
2023-05-05T17:33:28.356Z,3.25
2023-05-05T17:35:59.531Z,3.20
2023-05-05T17:38:27.656Z,3.22
2023-05-05T17:40:56.606Z,3.30
2023-05-05T17:43:24.672Z,3.58
2023-05-05T17:45:53.152Z,3.35
2023-05-05T17:48:23.125Z,3.45
2023-05-05T17:50:51.801Z,3.63
2023-05-05T17:53:20.259Z,4.32
2023-05-05T17:55:48.747Z,3.47
2023-05-05T17:58:17.196Z,4.05
2023-05-05T18:00:45.838Z,3.63
2023-05-05T18:03:14.009Z,3.38
2023-05-05T18:05:43.752Z,3.92
2023-05-05T18:08:12.289Z,3.33
2023-05-05T18:10:42.225Z,3.97
2023-05-05T18:13:10.804Z,3.50
2023-05-05T18:15:40.560Z,2.88
2023-05-05T18:18:12.013Z,3.60
2023-05-05T18:20:41.038Z,3.40
2023-05-05T18:23:13.762Z,3.92
2023-05-05T18:25:42.274Z,3.70
2023-05-05T18:28:10.845Z,4.63
2023-05-05T18:30:39.569Z,3.45
2023-05-05T18:33:07.966Z,4.03
2023-05-05T18:35:37.390Z,3.33
2023-05-05T18:38:06.062Z,4.07
2023-05-05T18:40:35.633Z,4.00
2023-05-05T18:43:04.312Z,4.15
2023-05-05T18:45:32.587Z,4.15
2023-05-05T18:48:02.852Z,4.57
2023-05-05T18:50:33.483Z,4.38
2023-05-05T18:53:02.532Z,4.53
2023-05-05T18:55:33.161Z,3.95
2023-05-05T18:58:02.738Z,4.95
2023-05-05T19:00:30.815Z,4.30
2023-05-05T19:03:02.828Z,4.35
2023-05-05T19:05:31.301Z,4.35
2023-05-05T19:08:00.525Z,4.85
2023-05-05T19:10:30.244Z,4.90
2023-05-05T19:12:59.123Z,5.97
2023-05-05T19:15:30.598Z,5.20
2023-05-05T19:18:00.804Z,6.50
2023-05-05T19:20:31.861Z,5.85
2023-05-05T19:23:03.804Z,5.43
2023-05-05T19:25:35.246Z,5.32
2023-05-05T19:28:03.723Z,5.47
2023-05-05T19:30:34.604Z,5.85
2023-05-05T19:33:02.959Z,5.90
2023-05-05T19:35:31.432Z,6.38
2023-05-05T19:37:59.549Z,6.28
2023-05-05T19:40:29.102Z,6.00
2023-05-05T19:42:57.890Z,5.60
2023-05-05T19:45:26.806Z,5.63
2023-05-05T19:47:57.916Z,5.60
2023-05-05T19:50:27.556Z,5.95
2023-05-05T19:52:56.553Z,6.45
2023-05-05T19:55:24.913Z,5.63
2023-05-05T19:57:53.765Z,6.32
2023-05-05T20:00:21.961Z,5.05
2023-05-05T20:02:50.160Z,4.90
2023-05-05T20:05:20.133Z,5.13
2023-05-05T20:07:48.112Z,5.70
2023-05-05T20:10:16.697Z,5.32
2023-05-05T20:12:48.268Z,5.63
2023-05-05T20:15:20.489Z,5.30
2023-05-05T20:17:51.512Z,5.63
2023-05-05T20:20:23.101Z,4.55
2023-05-05T20:22:51.622Z,5.20
2023-05-05T20:25:20.098Z,5.22
2023-05-05T20:27:48.428Z,5.20
2023-05-05T20:30:16.728Z,5.28
2023-05-05T20:32:47.613Z,4.88
2023-05-05T20:35:16.373Z,4.63
2023-05-05T20:37:46.394Z,4.68
2023-05-05T20:40:15.042Z,5.25
2023-05-05T20:42:43.891Z,5.85
2023-05-05T20:45:13.425Z,5.00
2023-05-05T20:47:43.645Z,4.80
2023-05-05T20:50:12.877Z,4.65
2023-05-05T20:52:41.123Z,4.90
2023-05-05T20:55:11.131Z,4.82
2023-05-05T20:57:39.597Z,5.63
2023-05-05T21:00:09.959Z,5.00
2023-05-05T21:02:38.726Z,4.85
2023-05-05T21:05:08.199Z,5.55
2023-05-05T21:07:36.979Z,5.32
2023-05-05T21:10:08.199Z,5.70
2023-05-05T21:12:38.202Z,5.90
2023-05-05T21:15:08.154Z,5.55
2023-05-05T21:17:36.642Z,5.43
2023-05-05T21:20:05.782Z,5.50
2023-05-05T21:22:33.835Z,5.95
2023-05-05T21:25:13.576Z,5.22
2023-05-05T21:27:43.796Z,5.72
2023-05-05T21:30:15.888Z,5.65
2023-05-05T21:32:47.139Z,5.75
2023-05-05T21:35:21.550Z,6.20
2023-05-05T21:37:51.829Z,6.15
2023-05-05T21:40:20.696Z,6.07
2023-05-05T21:42:52.849Z,6.97
2023-05-05T21:45:21.425Z,5.95
2023-05-05T21:47:50.113Z,7.25
2023-05-05T21:50:21.151Z,7.15
2023-05-05T21:52:52.606Z,7.05
2023-05-05T21:55:20.909Z,6.10
2023-05-05T21:57:50.578Z,7.22
2023-05-05T22:00:19.993Z,6.97
2023-05-05T22:02:48.648Z,6.28
2023-05-05T22:05:17.871Z,7.32
2023-05-05T22:07:46.140Z,7.60
2023-05-05T22:10:14.414Z,7.03
2023-05-05T22:12:42.627Z,7.07
2023-05-05T22:15:15.175Z,7.03
2023-05-05T22:17:45.023Z,7.25
2023-05-05T22:20:15.061Z,6.47
2023-05-05T22:22:43.364Z,7.53
2023-05-05T22:25:11.664Z,7.75
2023-05-05T22:27:41.120Z,6.78
2023-05-05T22:30:13.833Z,8.43
2023-05-05T22:32:43.525Z,8.38
2023-05-05T22:35:12.811Z,8.75
2023-05-05T22:37:43.420Z,8.80
2023-05-05T22:40:14.258Z,7.97
2023-05-05T22:42:42.885Z,9.20
2023-05-05T22:45:14.039Z,9.90
2023-05-05T22:47:42.275Z,9.25
2023-05-05T22:50:11.592Z,8.88
2023-05-05T22:52:41.438Z,9.10
2023-05-05T22:55:12.763Z,9.55
2023-05-05T22:57:44.902Z,9.75
2023-05-05T23:00:18.732Z,9.65
2023-05-05T23:02:47.296Z,11.15
2023-05-05T23:05:16.424Z,11.27
2023-05-05T23:07:44.697Z,11.50
2023-05-05T23:10:12.763Z,10.98
2023-05-05T23:12:40.870Z,10.73
2023-05-05T23:15:12.801Z,11.52
2023-05-05T23:17:42.476Z,10.27
2023-05-05T23:20:12.437Z,10.93
2023-05-05T23:22:40.636Z,11.27
2023-05-05T23:25:10.996Z,11.30
2023-05-05T23:27:42.019Z,12.98
2023-05-05T23:30:13.512Z,12.07
2023-05-05T23:32:44.916Z,13.10
2023-05-05T23:35:14.125Z,11.57
2023-05-05T23:37:42.281Z,12.63
2023-05-05T23:40:10.854Z,13.07
2023-05-05T23:42:39.103Z,12.32
2023-05-05T23:45:09.020Z,11.85
2023-05-05T23:47:37.322Z,12.07
2023-05-05T23:50:07.888Z,13.18
2023-05-05T23:52:36.217Z,12.32
2023-05-05T23:55:05.001Z,13.15
2023-05-05T23:57:33.735Z,13.75
